sensor_id;sensor_type;location;lat;lon;timestamp;temperature;humidity
8711;DHT22;4392;47.400;8.062;2024-03-23T00:54:03;14.70;90.80
8711;DHT22;4392;47.400;8.062;2024-03-23T00:56:29;14.70;90.80
8711;DHT22;4392;47.400;8.062;2024-03-23T00:58:57;14.60;90.90
8711;DHT22;4392;47.400;8.062;2024-03-23T01:01:23;14.60;90.90
8711;DHT22;4392;47.400;8.062;2024-03-23T01:03:49;14.60;90.70
8711;DHT22;4392;47.400;8.062;2024-03-23T01:06:14;14.60;90.90
8711;DHT22;4392;47.400;8.062;2024-03-23T01:08:40;14.60;91.00
8711;DHT22;4392;47.400;8.062;2024-03-23T01:11:06;14.60;91.20
8711;DHT22;4392;47.400;8.062;2024-03-23T01:13:31;14.60;91.20
8711;DHT22;4392;47.400;8.062;2024-03-23T01:15:57;14.50;91.10
8711;DHT22;4392;47.400;8.062;2024-03-23T01:18:24;14.50;91.20
8711;DHT22;4392;47.400;8.062;2024-03-23T01:20:51;14.50;91.30
8711;DHT22;4392;47.400;8.062;2024-03-23T01:23:17;14.50;91.20
8711;DHT22;4392;47.400;8.062;2024-03-23T01:25:43;14.50;91.30
8711;DHT22;4392;47.400;8.062;2024-03-23T01:28:08;14.50;91.40
8711;DHT22;4392;47.400;8.062;2024-03-23T01:30:35;14.40;91.00
8711;DHT22;4392;47.400;8.062;2024-03-23T01:33:01;14.40;91.30
8711;DHT22;4392;47.400;8.062;2024-03-23T01:35:26;14.40;91.00
8711;DHT22;4392;47.400;8.062;2024-03-23T01:37:54;14.40;91.20
8711;DHT22;4392;47.400;8.062;2024-03-23T01:40:20;14.40;90.80
8711;DHT22;4392;47.400;8.062;2024-03-23T01:43:01;14.40;91.20
8711;DHT22;4392;47.400;8.062;2024-03-23T01:45:27;14.50;90.80
8711;DHT22;4392;47.400;8.062;2024-03-23T01:47:53;14.50;90.90
8711;DHT22;4392;47.400;8.062;2024-03-23T01:50:22;14.50;90.60
8711;DHT22;4392;47.400;8.062;2024-03-23T01:52:49;14.50;90.90
8711;DHT22;4392;47.400;8.062;2024-03-23T01:55:15;14.70;99.90
8711;DHT22;4392;47.400;8.062;2024-03-23T01:57:41;14.90;92.40
8711;DHT22;4392;47.400;8.062;2024-03-23T02:00:07;14.80;91.90
8711;DHT22;4392;47.400;8.062;2024-03-23T02:02:47;14.70;91.90
8711;DHT22;4392;47.400;8.062;2024-03-23T02:05:13;14.70;91.80
8711;DHT22;4392;47.400;8.062;2024-03-23T02:07:40;14.70;92.00
8711;DHT22;4392;47.400;8.062;2024-03-23T02:10:09;14.60;91.80
8711;DHT22;4392;47.400;8.062;2024-03-23T02:12:36;14.60;91.60
8711;DHT22;4392;47.400;8.062;2024-03-23T02:15:02;14.60;91.50
8711;DHT22;4392;47.400;8.062;2024-03-23T02:17:30;14.60;91.30
8711;DHT22;4392;47.400;8.062;2024-03-23T02:19:56;14.60;91.30
8711;DHT22;4392;47.400;8.062;2024-03-23T02:22:21;15.10;99.90
8711;DHT22;4392;47.400;8.062;2024-03-23T02:24:47;15.60;94.10
8711;DHT22;4392;47.400;8.062;2024-03-23T02:27:13;15.20;91.10
8711;DHT22;4392;47.400;8.062;2024-03-23T02:29:38;14.90;90.80
8711;DHT22;4392;47.400;8.062;2024-03-23T02:32:04;14.70;91.00
8711;DHT22;4392;47.400;8.062;2024-03-23T02:34:30;14.60;91.00
8711;DHT22;4392;47.400;8.062;2024-03-23T02:36:55;14.50;90.80
8711;DHT22;4392;47.400;8.062;2024-03-23T02:39:21;14.50;91.00
8711;DHT22;4392;47.400;8.062;2024-03-23T02:41:47;14.30;91.40
8711;DHT22;4392;47.400;8.062;2024-03-23T02:44:13;14.90;99.90
8711;DHT22;4392;47.400;8.062;2024-03-23T02:46:39;15.00;92.00
8711;DHT22;4392;47.400;8.062;2024-03-23T02:49:05;14.70;93.40
8711;DHT22;4392;47.400;8.062;2024-03-23T02:51:31;14.70;91.80
8711;DHT22;4392;47.400;8.062;2024-03-23T02:53:57;14.70;95.60
8711;DHT22;4392;47.400;8.062;2024-03-23T02:56:22;15.00;92.20
8711;DHT22;4392;47.400;8.062;2024-03-23T02:58:48;14.90;90.70
8711;DHT22;4392;47.400;8.062;2024-03-23T03:01:14;14.80;90.50
8711;DHT22;4392;47.400;8.062;2024-03-23T03:03:40;14.70;90.50
8711;DHT22;4392;47.400;8.062;2024-03-23T03:06:05;14.70;90.60
8711;DHT22;4392;47.400;8.062;2024-03-23T03:08:31;14.70;90.40
8711;DHT22;4392;47.400;8.062;2024-03-23T03:10:56;14.70;90.50
8711;DHT22;4392;47.400;8.062;2024-03-23T03:13:22;14.60;90.50
8711;DHT22;4392;47.400;8.062;2024-03-23T03:15:48;14.50;90.60
8711;DHT22;4392;47.400;8.062;2024-03-23T03:18:13;14.50;90.70
8711;DHT22;4392;47.400;8.062;2024-03-23T03:20:39;14.60;90.70
8711;DHT22;4392;47.400;8.062;2024-03-23T03:23:06;14.50;90.60
8711;DHT22;4392;47.400;8.062;2024-03-23T03:25:32;14.50;90.70
8711;DHT22;4392;47.400;8.062;2024-03-23T03:27:57;14.60;90.60
8711;DHT22;4392;47.400;8.062;2024-03-23T03:30:23;14.50;90.70
8711;DHT22;4392;47.400;8.062;2024-03-23T03:32:49;14.50;90.70
8711;DHT22;4392;47.400;8.062;2024-03-23T03:35:15;14.40;91.00
8711;DHT22;4392;47.400;8.062;2024-03-23T03:37:41;14.30;91.50
8711;DHT22;4392;47.400;8.062;2024-03-23T03:40:07;14.30;91.30
8711;DHT22;4392;47.400;8.062;2024-03-23T03:42:34;14.20;91.50
8711;DHT22;4392;47.400;8.062;2024-03-23T03:45:00;14.20;91.20
8711;DHT22;4392;47.400;8.062;2024-03-23T03:47:25;14.30;91.10
8711;DHT22;4392;47.400;8.062;2024-03-23T03:49:51;14.30;91.10
8711;DHT22;4392;47.400;8.062;2024-03-23T03:52:17;14.20;91.20
8711;DHT22;4392;47.400;8.062;2024-03-23T03:54:42;14.10;91.10
8711;DHT22;4392;47.400;8.062;2024-03-23T03:57:08;14.20;91.20
8711;DHT22;4392;47.400;8.062;2024-03-23T03:59:34;14.20;91.10
8711;DHT22;4392;47.400;8.062;2024-03-23T04:01:59;14.20;91.20
8711;DHT22;4392;47.400;8.062;2024-03-23T04:04:25;14.30;91.30
8711;DHT22;4392;47.400;8.062;2024-03-23T04:06:59;14.30;91.00
8711;DHT22;4392;47.400;8.062;2024-03-23T04:09:24;14.30;91.00
8711;DHT22;4392;47.400;8.062;2024-03-23T04:11:50;14.30;90.90
8711;DHT22;4392;47.400;8.062;2024-03-23T04:14:15;14.10;91.20
8711;DHT22;4392;47.400;8.062;2024-03-23T04:16:41;14.10;91.00
8711;DHT22;4392;47.400;8.062;2024-03-23T04:19:07;14.00;91.50
8711;DHT22;4392;47.400;8.062;2024-03-23T04:21:33;14.10;91.30
8711;DHT22;4392;47.400;8.062;2024-03-23T04:23:59;14.10;91.20
8711;DHT22;4392;47.400;8.062;2024-03-23T04:26:25;13.90;91.30
8711;DHT22;4392;47.400;8.062;2024-03-23T04:28:51;14.00;91.50
8711;DHT22;4392;47.400;8.062;2024-03-23T04:31:16;14.10;91.40
8711;DHT22;4392;47.400;8.062;2024-03-23T04:33:44;14.10;93.60
8711;DHT22;4392;47.400;8.062;2024-03-23T04:36:10;14.00;92.10
8711;DHT22;4392;47.400;8.062;2024-03-23T04:38:36;14.40;99.90
8711;DHT22;4392;47.400;8.062;2024-03-23T04:41:01;14.70;92.70
8711;DHT22;4392;47.400;8.062;2024-03-23T04:43:27;14.50;91.70
8711;DHT22;4392;47.400;8.062;2024-03-23T04:45:54;14.50;97.40
8711;DHT22;4392;47.400;8.062;2024-03-23T04:48:21;14.80;93.80
8711;DHT22;4392;47.400;8.062;2024-03-23T04:50:55;14.40;91.50
8711;DHT22;4392;47.400;8.062;2024-03-23T04:53:23;14.20;91.50
8711;DHT22;4392;47.400;8.062;2024-03-23T04:55:54;13.80;92.20
8711;DHT22;4392;47.400;8.062;2024-03-23T04:58:19;13.60;92.60
8711;DHT22;4392;47.400;8.062;2024-03-23T05:00:45;13.60;92.10
8711;DHT22;4392;47.400;8.062;2024-03-23T05:03:10;13.20;94.20
8711;DHT22;4392;47.400;8.062;2024-03-23T05:05:36;13.30;94.90
8711;DHT22;4392;47.400;8.062;2024-03-23T05:08:02;13.60;95.10
8711;DHT22;4392;47.400;8.062;2024-03-23T05:10:27;13.90;94.60
8711;DHT22;4392;47.400;8.062;2024-03-23T05:12:53;14.00;95.50
8711;DHT22;4392;47.400;8.062;2024-03-23T05:15:18;14.00;96.70
8711;DHT22;4392;47.400;8.062;2024-03-23T05:17:44;13.90;98.70
8711;DHT22;4392;47.400;8.062;2024-03-23T05:20:10;13.60;99.90
8711;DHT22;4392;47.400;8.062;2024-03-23T05:22:38;13.30;99.90
8711;DHT22;4392;47.400;8.062;2024-03-23T05:25:03;13.20;99.90
8711;DHT22;4392;47.400;8.062;2024-03-23T05:27:33;13.30;99.90
8711;DHT22;4392;47.400;8.062;2024-03-23T05:29:59;13.70;99.90
8711;DHT22;4392;47.400;8.062;2024-03-23T05:32:25;14.30;99.90
8711;DHT22;4392;47.400;8.062;2024-03-23T05:34:50;14.20;99.90
8711;DHT22;4392;47.400;8.062;2024-03-23T05:37:21;13.90;99.90
8711;DHT22;4392;47.400;8.062;2024-03-23T05:39:47;14.10;99.90
8711;DHT22;4392;47.400;8.062;2024-03-23T05:42:15;14.30;99.90
8711;DHT22;4392;47.400;8.062;2024-03-23T05:44:43;14.20;99.90
8711;DHT22;4392;47.400;8.062;2024-03-23T05:47:09;14.20;99.90
8711;DHT22;4392;47.400;8.062;2024-03-23T05:49:35;14.20;99.90
8711;DHT22;4392;47.400;8.062;2024-03-23T05:52:00;14.00;99.90
8711;DHT22;4392;47.400;8.062;2024-03-23T05:54:29;13.60;99.90
8711;DHT22;4392;47.400;8.062;2024-03-23T05:56:55;13.50;99.90
8711;DHT22;4392;47.400;8.062;2024-03-23T05:59:21;12.90;99.90
8711;DHT22;4392;47.400;8.062;2024-03-23T06:01:50;12.50;99.90
8711;DHT22;4392;47.400;8.062;2024-03-23T06:04:15;12.30;99.90
8711;DHT22;4392;47.400;8.062;2024-03-23T06:06:41;12.20;99.90
8711;DHT22;4392;47.400;8.062;2024-03-23T06:09:07;12.60;99.90
8711;DHT22;4392;47.400;8.062;2024-03-23T06:11:33;12.50;99.90
8711;DHT22;4392;47.400;8.062;2024-03-23T06:13:58;12.50;99.90
8711;DHT22;4392;47.400;8.062;2024-03-23T06:16:24;12.30;99.90
8711;DHT22;4392;47.400;8.062;2024-03-23T06:18:53;12.30;99.90
8711;DHT22;4392;47.400;8.062;2024-03-23T06:21:21;12.30;99.90
8711;DHT22;4392;47.400;8.062;2024-03-23T06:23:52;12.10;99.90
8711;DHT22;4392;47.400;8.062;2024-03-23T06:26:18;12.20;99.90
8711;DHT22;4392;47.400;8.062;2024-03-23T06:28:44;12.30;99.90
8711;DHT22;4392;47.400;8.062;2024-03-23T06:31:10;12.30;99.90
8711;DHT22;4392;47.400;8.062;2024-03-23T06:33:36;12.20;99.90
8711;DHT22;4392;47.400;8.062;2024-03-23T06:36:02;12.30;99.90
8711;DHT22;4392;47.400;8.062;2024-03-23T06:38:28;12.30;99.90
8711;DHT22;4392;47.400;8.062;2024-03-23T06:40:54;12.20;99.90
8711;DHT22;4392;47.400;8.062;2024-03-23T06:43:20;12.20;99.90
8711;DHT22;4392;47.400;8.062;2024-03-23T06:45:55;12.40;99.90
8711;DHT22;4392;47.400;8.062;2024-03-23T06:48:21;12.40;99.90
8711;DHT22;4392;47.400;8.062;2024-03-23T06:50:47;12.40;99.90
8711;DHT22;4392;47.400;8.062;2024-03-23T06:53:13;12.10;99.90
8711;DHT22;4392;47.400;8.062;2024-03-23T06:55:39;12.10;99.90
8711;DHT22;4392;47.400;8.062;2024-03-23T06:58:05;12.20;99.90
8711;DHT22;4392;47.400;8.062;2024-03-23T07:00:31;12.00;99.90
8711;DHT22;4392;47.400;8.062;2024-03-23T07:03:00;11.90;99.90
8711;DHT22;4392;47.400;8.062;2024-03-23T07:05:29;12.00;99.90
8711;DHT22;4392;47.400;8.062;2024-03-23T07:07:54;12.30;99.90
8711;DHT22;4392;47.400;8.062;2024-03-23T07:10:20;12.30;99.90
8711;DHT22;4392;47.400;8.062;2024-03-23T07:12:46;12.40;99.90
8711;DHT22;4392;47.400;8.062;2024-03-23T07:15:11;12.70;99.90
8711;DHT22;4392;47.400;8.062;2024-03-23T07:17:37;13.00;99.90
8711;DHT22;4392;47.400;8.062;2024-03-23T07:20:03;13.00;99.90
8711;DHT22;4392;47.400;8.062;2024-03-23T07:22:30;12.70;99.90
8711;DHT22;4392;47.400;8.062;2024-03-23T07:24:55;12.30;99.90
8711;DHT22;4392;47.400;8.062;2024-03-23T07:27:23;11.30;99.90
8711;DHT22;4392;47.400;8.062;2024-03-23T07:29:51;11.00;99.90
8711;DHT22;4392;47.400;8.062;2024-03-23T07:32:20;10.80;99.90
8711;DHT22;4392;47.400;8.062;2024-03-23T07:34:46;10.70;99.90
8711;DHT22;4392;47.400;8.062;2024-03-23T07:37:11;10.20;99.90
8711;DHT22;4392;47.400;8.062;2024-03-23T07:39:37;10.50;99.90
8711;DHT22;4392;47.400;8.062;2024-03-23T07:42:03;10.20;99.90
8711;DHT22;4392;47.400;8.062;2024-03-23T07:44:29;10.00;99.90
8711;DHT22;4392;47.400;8.062;2024-03-23T07:46:54;9.90;99.90
8711;DHT22;4392;47.400;8.062;2024-03-23T07:49:20;9.90;99.90
8711;DHT22;4392;47.400;8.062;2024-03-23T07:51:46;9.90;99.90
8711;DHT22;4392;47.400;8.062;2024-03-23T07:54:11;10.10;99.90
8711;DHT22;4392;47.400;8.062;2024-03-23T07:56:37;9.70;99.90
8711;DHT22;4392;47.400;8.062;2024-03-23T07:59:02;9.50;99.90
8711;DHT22;4392;47.400;8.062;2024-03-23T08:01:31;9.50;99.90
8711;DHT22;4392;47.400;8.062;2024-03-23T08:03:56;9.40;99.90
8711;DHT22;4392;47.400;8.062;2024-03-23T08:06:22;9.50;99.90
8711;DHT22;4392;47.400;8.062;2024-03-23T08:08:56;9.70;99.90
8711;DHT22;4392;47.400;8.062;2024-03-23T08:11:34;9.70;99.90
8711;DHT22;4392;47.400;8.062;2024-03-23T08:14:00;9.40;98.40
8711;DHT22;4392;47.400;8.062;2024-03-23T08:16:27;9.40;97.60
8711;DHT22;4392;47.400;8.062;2024-03-23T08:18:53;9.30;97.40
8711;DHT22;4392;47.400;8.062;2024-03-23T08:21:19;9.10;97.90
8711;DHT22;4392;47.400;8.062;2024-03-23T08:23:46;9.10;98.00
8711;DHT22;4392;47.400;8.062;2024-03-23T08:26:14;8.90;98.40
8711;DHT22;4392;47.400;8.062;2024-03-23T08:28:40;8.90;96.40
8711;DHT22;4392;47.400;8.062;2024-03-23T08:31:10;8.90;96.90
8711;DHT22;4392;47.400;8.062;2024-03-23T08:33:37;9.10;97.00
8711;DHT22;4392;47.400;8.062;2024-03-23T08:36:07;9.00;97.50
8711;DHT22;4392;47.400;8.062;2024-03-23T08:38:33;9.10;96.90
8711;DHT22;4392;47.400;8.062;2024-03-23T08:43:27;9.50;96.60
8711;DHT22;4392;47.400;8.062;2024-03-23T08:45:53;9.70;96.40
8711;DHT22;4392;47.400;8.062;2024-03-23T08:48:23;9.80;95.00
8711;DHT22;4392;47.400;8.062;2024-03-23T08:51:03;9.50;95.60
8711;DHT22;4392;47.400;8.062;2024-03-23T08:53:29;9.50;95.80
8711;DHT22;4392;47.400;8.062;2024-03-23T08:55:56;9.30;95.40
8711;DHT22;4392;47.400;8.062;2024-03-23T08:58:26;9.30;95.70
8711;DHT22;4392;47.400;8.062;2024-03-23T09:00:54;9.30;95.20
8711;DHT22;4392;47.400;8.062;2024-03-23T09:03:25;9.50;94.80
8711;DHT22;4392;47.400;8.062;2024-03-23T09:05:52;9.90;95.00
8711;DHT22;4392;47.400;8.062;2024-03-23T09:08:18;9.90;93.50
8711;DHT22;4392;47.400;8.062;2024-03-23T09:10:44;9.80;94.40
8711;DHT22;4392;47.400;8.062;2024-03-23T09:13:10;9.90;93.30
8711;DHT22;4392;47.400;8.062;2024-03-23T09:15:44;10.00;92.10
8711;DHT22;4392;47.400;8.062;2024-03-23T09:18:13;9.90;92.20
8711;DHT22;4392;47.400;8.062;2024-03-23T09:20:38;9.60;91.60
8711;DHT22;4392;47.400;8.062;2024-03-23T09:23:04;9.80;90.60
8711;DHT22;4392;47.400;8.062;2024-03-23T09:25:30;9.50;91.20
8711;DHT22;4392;47.400;8.062;2024-03-23T09:27:56;9.90;91.40
8711;DHT22;4392;47.400;8.062;2024-03-23T09:30:21;10.30;90.40
8711;DHT22;4392;47.400;8.062;2024-03-23T09:32:47;10.60;89.80
8711;DHT22;4392;47.400;8.062;2024-03-23T09:35:13;10.40;88.20
8711;DHT22;4392;47.400;8.062;2024-03-23T09:37:40;10.30;89.70
8711;DHT22;4392;47.400;8.062;2024-03-23T09:40:15;10.30;87.90
8711;DHT22;4392;47.400;8.062;2024-03-23T09:42:42;10.30;88.90
8711;DHT22;4392;47.400;8.062;2024-03-23T09:45:17;10.30;88.90
8711;DHT22;4392;47.400;8.062;2024-03-23T09:47:43;10.50;89.80
8711;DHT22;4392;47.400;8.062;2024-03-23T09:50:13;10.80;88.30
8711;DHT22;4392;47.400;8.062;2024-03-23T09:52:39;10.60;88.20
8711;DHT22;4392;47.400;8.062;2024-03-23T09:55:08;10.70;87.00
8711;DHT22;4392;47.400;8.062;2024-03-23T09:57:34;10.70;87.80
8711;DHT22;4392;47.400;8.062;2024-03-23T10:00:00;10.30;86.60
8711;DHT22;4392;47.400;8.062;2024-03-23T10:02:26;10.20;89.30
8711;DHT22;4392;47.400;8.062;2024-03-23T10:04:51;10.50;87.10
8711;DHT22;4392;47.400;8.062;2024-03-23T10:07:21;10.50;87.50
8711;DHT22;4392;47.400;8.062;2024-03-23T10:09:50;10.50;87.20
8711;DHT22;4392;47.400;8.062;2024-03-23T10:12:18;10.40;85.80
8711;DHT22;4392;47.400;8.062;2024-03-23T10:14:44;10.50;83.50
8711;DHT22;4392;47.400;8.062;2024-03-23T10:19:47;10.80;81.10
8711;DHT22;4392;47.400;8.062;2024-03-23T10:22:23;10.90;81.00
8711;DHT22;4392;47.400;8.062;2024-03-23T10:24:52;11.10;77.00
8711;DHT22;4392;47.400;8.062;2024-03-23T10:27:20;10.80;76.70
8711;DHT22;4392;47.400;8.062;2024-03-23T10:29:49;10.70;76.20
8711;DHT22;4392;47.400;8.062;2024-03-23T10:32:18;10.80;72.90
8711;DHT22;4392;47.400;8.062;2024-03-23T10:34:44;10.70;74.10
8711;DHT22;4392;47.400;8.062;2024-03-23T10:37:10;10.70;71.40
8711;DHT22;4392;47.400;8.062;2024-03-23T10:39:38;10.50;71.40
8711;DHT22;4392;47.400;8.062;2024-03-23T10:42:08;10.80;71.80
8711;DHT22;4392;47.400;8.062;2024-03-23T10:44:36;11.00;71.70
8711;DHT22;4392;47.400;8.062;2024-03-23T10:47:03;11.00;70.60
8711;DHT22;4392;47.400;8.062;2024-03-23T10:49:29;10.90;71.20
8711;DHT22;4392;47.400;8.062;2024-03-23T10:51:59;10.60;71.10
8711;DHT22;4392;47.400;8.062;2024-03-23T10:54:25;10.60;72.10
8711;DHT22;4392;47.400;8.062;2024-03-23T10:59:32;10.40;69.60
8711;DHT22;4392;47.400;8.062;2024-03-23T11:01:59;10.50;71.20
8711;DHT22;4392;47.400;8.062;2024-03-23T11:04:38;10.80;65.30
8711;DHT22;4392;47.400;8.062;2024-03-23T11:09:54;11.10;64.70
8711;DHT22;4392;47.400;8.062;2024-03-23T11:17:20;11.30;62.50
8711;DHT22;4392;47.400;8.062;2024-03-23T11:27:43;11.40;64.30
8711;DHT22;4392;47.400;8.062;2024-03-23T11:30:19;11.60;64.20
8711;DHT22;4392;47.400;8.062;2024-03-23T11:32:46;11.20;62.70
8711;DHT22;4392;47.400;8.062;2024-03-23T11:35:38;11.30;65.20
8711;DHT22;4392;47.400;8.062;2024-03-23T11:38:07;11.50;63.70
8711;DHT22;4392;47.400;8.062;2024-03-23T11:40:34;11.30;63.70
8711;DHT22;4392;47.400;8.062;2024-03-23T11:43:02;11.30;65.10
8711;DHT22;4392;47.400;8.062;2024-03-23T11:45:28;11.60;66.00
8711;DHT22;4392;47.400;8.062;2024-03-23T11:50:29;11.30;66.10
8711;DHT22;4392;47.400;8.062;2024-03-23T11:53:16;10.90;71.50
8711;DHT22;4392;47.400;8.062;2024-03-23T11:58:14;9.90;83.50
8711;DHT22;4392;47.400;8.062;2024-03-23T12:00:40;9.70;85.10
8711;DHT22;4392;47.400;8.062;2024-03-23T12:03:06;9.80;84.50
8711;DHT22;4392;47.400;8.062;2024-03-23T12:05:33;9.30;86.50
8711;DHT22;4392;47.400;8.062;2024-03-23T12:08:18;9.50;86.70
8711;DHT22;4392;47.400;8.062;2024-03-23T12:10:46;9.30;86.90
8711;DHT22;4392;47.400;8.062;2024-03-23T12:13:15;10.00;94.10
8711;DHT22;4392;47.400;8.062;2024-03-23T12:15:43;9.90;86.40
8711;DHT22;4392;47.400;8.062;2024-03-23T12:18:09;9.50;85.30
8711;DHT22;4392;47.400;8.062;2024-03-23T12:20:37;9.50;84.80
8711;DHT22;4392;47.400;8.062;2024-03-23T12:23:21;10.70;99.90
8711;DHT22;4392;47.400;8.062;2024-03-23T12:25:48;12.10;95.00
8711;DHT22;4392;47.400;8.062;2024-03-23T12:28:14;11.90;83.10
8711;DHT22;4392;47.400;8.062;2024-03-23T12:30:40;11.80;80.10
8711;DHT22;4392;47.400;8.062;2024-03-23T12:33:06;11.50;78.40
8711;DHT22;4392;47.400;8.062;2024-03-23T12:35:32;11.10;79.80
8711;DHT22;4392;47.400;8.062;2024-03-23T12:37:57;10.80;79.40
8711;DHT22;4392;47.400;8.062;2024-03-23T12:40:23;10.50;80.80
8711;DHT22;4392;47.400;8.062;2024-03-23T12:42:49;10.60;77.00
8711;DHT22;4392;47.400;8.062;2024-03-23T12:45:15;10.80;77.30
8711;DHT22;4392;47.400;8.062;2024-03-23T12:47:41;10.90;76.30
8711;DHT22;4392;47.400;8.062;2024-03-23T12:50:07;10.70;75.80
8711;DHT22;4392;47.400;8.062;2024-03-23T12:52:33;10.70;76.20
8711;DHT22;4392;47.400;8.062;2024-03-23T12:54:58;11.00;75.60
8711;DHT22;4392;47.400;8.062;2024-03-23T12:57:25;11.30;74.20
8711;DHT22;4392;47.400;8.062;2024-03-23T12:59:51;11.40;72.40
8711;DHT22;4392;47.400;8.062;2024-03-23T13:02:21;11.30;68.50
8711;DHT22;4392;47.400;8.062;2024-03-23T13:04:53;11.50;68.00
8711;DHT22;4392;47.400;8.062;2024-03-23T13:07:21;11.80;63.60
8711;DHT22;4392;47.400;8.062;2024-03-23T13:09:47;11.70;60.30
8711;DHT22;4392;47.400;8.062;2024-03-23T13:12:15;11.70;60.50
8711;DHT22;4392;47.400;8.062;2024-03-23T13:14:41;11.90;60.80
8711;DHT22;4392;47.400;8.062;2024-03-23T13:17:08;11.90;60.50
8711;DHT22;4392;47.400;8.062;2024-03-23T13:19:34;11.70;60.90
8711;DHT22;4392;47.400;8.062;2024-03-23T13:22:01;11.30;67.90
8711;DHT22;4392;47.400;8.062;2024-03-23T13:24:28;11.30;69.00
8711;DHT22;4392;47.400;8.062;2024-03-23T13:26:54;11.50;69.40
8711;DHT22;4392;47.400;8.062;2024-03-23T13:29:21;11.40;67.30
8711;DHT22;4392;47.400;8.062;2024-03-23T13:31:48;11.40;68.40
8711;DHT22;4392;47.400;8.062;2024-03-23T13:34:15;11.60;68.30
8711;DHT22;4392;47.400;8.062;2024-03-23T13:36:44;11.50;68.10
8711;DHT22;4392;47.400;8.062;2024-03-23T13:39:11;12.10;86.80
8711;DHT22;4392;47.400;8.062;2024-03-23T13:41:46;12.80;82.40
8711;DHT22;4392;47.400;8.062;2024-03-23T13:44:12;12.70;67.50
8711;DHT22;4392;47.400;8.062;2024-03-23T13:46:39;12.50;65.50
8711;DHT22;4392;47.400;8.062;2024-03-23T13:49:18;12.70;64.10
8711;DHT22;4392;47.400;8.062;2024-03-23T13:51:46;12.80;62.30
8711;DHT22;4392;47.400;8.062;2024-03-23T13:54:12;12.90;61.60
8711;DHT22;4392;47.400;8.062;2024-03-23T13:56:37;13.70;71.80
8711;DHT22;4392;47.400;8.062;2024-03-23T13:59:03;13.00;58.30
8711;DHT22;4392;47.400;8.062;2024-03-23T14:01:31;12.50;62.40
8711;DHT22;4392;47.400;8.062;2024-03-23T14:03:57;12.60;63.00
8711;DHT22;4392;47.400;8.062;2024-03-23T14:06:22;12.70;64.00
8711;DHT22;4392;47.400;8.062;2024-03-23T14:08:49;13.10;69.00
8711;DHT22;4392;47.400;8.062;2024-03-23T14:11:15;13.30;68.30
8711;DHT22;4392;47.400;8.062;2024-03-23T14:13:40;13.20;61.60
8711;DHT22;4392;47.400;8.062;2024-03-23T14:16:06;12.70;61.10
8711;DHT22;4392;47.400;8.062;2024-03-23T14:18:34;13.30;65.10
8711;DHT22;4392;47.400;8.062;2024-03-23T14:21:00;12.80;58.80
8711;DHT22;4392;47.400;8.062;2024-03-23T14:23:31;12.30;56.60
8711;DHT22;4392;47.400;8.062;2024-03-23T14:26:02;12.80;58.80
8711;DHT22;4392;47.400;8.062;2024-03-23T14:28:27;12.50;58.40
8711;DHT22;4392;47.400;8.062;2024-03-23T14:30:55;12.90;61.60
8711;DHT22;4392;47.400;8.062;2024-03-23T14:33:21;12.90;59.00
8711;DHT22;4392;47.400;8.062;2024-03-23T14:38:21;13.30;64.30
8711;DHT22;4392;47.400;8.062;2024-03-23T14:40:46;13.70;59.00
8711;DHT22;4392;47.400;8.062;2024-03-23T14:43:12;14.40;64.50
8711;DHT22;4392;47.400;8.062;2024-03-23T14:46:06;13.80;55.90
8711;DHT22;4392;47.400;8.062;2024-03-23T14:48:32;13.90;56.00
8711;DHT22;4392;47.400;8.062;2024-03-23T14:50:58;14.30;60.70
8711;DHT22;4392;47.400;8.062;2024-03-23T14:53:25;14.40;54.70
8711;DHT22;4392;47.400;8.062;2024-03-23T14:55:53;14.40;56.00
8711;DHT22;4392;47.400;8.062;2024-03-23T14:58:19;14.60;57.80
8711;DHT22;4392;47.400;8.062;2024-03-23T15:00:45;14.90;54.70
8711;DHT22;4392;47.400;8.062;2024-03-23T15:03:10;14.10;48.80
8711;DHT22;4392;47.400;8.062;2024-03-23T15:05:36;13.20;48.00
8711;DHT22;4392;47.400;8.062;2024-03-23T15:08:02;13.10;49.60
8711;DHT22;4392;47.400;8.062;2024-03-23T15:10:28;12.70;47.10
8711;DHT22;4392;47.400;8.062;2024-03-23T15:12:54;12.30;50.10
8711;DHT22;4392;47.400;8.062;2024-03-23T15:15:20;12.50;48.50
8711;DHT22;4392;47.400;8.062;2024-03-23T15:17:46;13.40;51.90
8711;DHT22;4392;47.400;8.062;2024-03-23T15:20:11;13.60;54.70
8711;DHT22;4392;47.400;8.062;2024-03-23T15:22:38;13.50;50.30
8711;DHT22;4392;47.400;8.062;2024-03-23T15:25:06;13.70;54.60
8711;DHT22;4392;47.400;8.062;2024-03-23T15:27:31;14.10;56.50
8711;DHT22;4392;47.400;8.062;2024-03-23T15:29:57;14.60;59.60
8711;DHT22;4392;47.400;8.062;2024-03-23T15:32:23;14.80;55.20
8711;DHT22;4392;47.400;8.062;2024-03-23T15:34:48;15.00;54.40
8711;DHT22;4392;47.400;8.062;2024-03-23T15:37:14;14.70;56.20
8711;DHT22;4392;47.400;8.062;2024-03-23T15:39:40;14.90;50.40
8711;DHT22;4392;47.400;8.062;2024-03-23T15:42:07;14.50;47.80
8711;DHT22;4392;47.400;8.062;2024-03-23T15:44:32;14.00;47.30
8711;DHT22;4392;47.400;8.062;2024-03-23T15:46:58;13.60;46.00
8711;DHT22;4392;47.400;8.062;2024-03-23T15:49:24;12.60;45.30
8711;DHT22;4392;47.400;8.062;2024-03-23T15:51:50;12.20;46.40
8711;DHT22;4392;47.400;8.062;2024-03-23T15:54:15;12.20;46.80
8711;DHT22;4392;47.400;8.062;2024-03-23T15:56:41;11.80;47.00
8711;DHT22;4392;47.400;8.062;2024-03-23T15:59:07;11.60;47.50
8711;DHT22;4392;47.400;8.062;2024-03-23T16:01:34;12.30;52.60
8711;DHT22;4392;47.400;8.062;2024-03-23T16:04:01;12.70;47.50
8711;DHT22;4392;47.400;8.062;2024-03-23T16:06:27;12.30;49.80
8711;DHT22;4392;47.400;8.062;2024-03-23T16:08:53;12.70;48.30
8711;DHT22;4392;47.400;8.062;2024-03-23T16:11:18;12.40;48.80
8711;DHT22;4392;47.400;8.062;2024-03-23T16:13:44;11.80;49.30
8711;DHT22;4392;47.400;8.062;2024-03-23T16:16:11;11.80;50.70
8711;DHT22;4392;47.400;8.062;2024-03-23T16:18:37;11.60;50.70
8711;DHT22;4392;47.400;8.062;2024-03-23T16:21:06;11.60;50.80
8711;DHT22;4392;47.400;8.062;2024-03-23T16:23:33;11.40;51.30
8711;DHT22;4392;47.400;8.062;2024-03-23T16:25:59;11.70;52.70
8711;DHT22;4392;47.400;8.062;2024-03-23T16:28:31;11.50;52.10
8711;DHT22;4392;47.400;8.062;2024-03-23T16:33:33;11.60;53.60
8711;DHT22;4392;47.400;8.062;2024-03-23T16:36:00;11.50;53.60
8711;DHT22;4392;47.400;8.062;2024-03-23T16:38:29;11.70;54.70
8711;DHT22;4392;47.400;8.062;2024-03-23T16:40:59;11.80;54.50
8711;DHT22;4392;47.400;8.062;2024-03-23T16:43:25;11.60;55.20
8711;DHT22;4392;47.400;8.062;2024-03-23T16:45:56;11.40;56.80
8711;DHT22;4392;47.400;8.062;2024-03-23T16:48:26;11.40;57.80
8711;DHT22;4392;47.400;8.062;2024-03-23T16:50:52;11.90;58.70
8711;DHT22;4392;47.400;8.062;2024-03-23T16:53:18;11.80;58.60
8711;DHT22;4392;47.400;8.062;2024-03-23T16:55:46;11.40;59.90
8711;DHT22;4392;47.400;8.062;2024-03-23T16:58:12;11.30;59.90
8711;DHT22;4392;47.400;8.062;2024-03-23T17:00:38;11.20;59.90
8711;DHT22;4392;47.400;8.062;2024-03-23T17:03:03;11.20;60.40
8711;DHT22;4392;47.400;8.062;2024-03-23T17:05:35;11.00;60.70
8711;DHT22;4392;47.400;8.062;2024-03-23T17:08:01;10.80;62.10
8711;DHT22;4392;47.400;8.062;2024-03-23T17:10:29;10.90;61.30
8711;DHT22;4392;47.400;8.062;2024-03-23T17:12:56;11.10;61.90
8711;DHT22;4392;47.400;8.062;2024-03-23T17:15:22;11.20;62.30
8711;DHT22;4392;47.400;8.062;2024-03-23T17:17:48;11.50;61.20
8711;DHT22;4392;47.400;8.062;2024-03-23T17:20:14;11.30;60.40
8711;DHT22;4392;47.400;8.062;2024-03-23T17:22:40;10.50;68.70
8711;DHT22;4392;47.400;8.062;2024-03-23T17:25:06;10.60;75.00
8711;DHT22;4392;47.400;8.062;2024-03-23T17:27:32;11.20;72.00
8711;DHT22;4392;47.400;8.062;2024-03-23T17:29:57;10.80;73.20